createdAt,value
2023-01-29T00:04:07.235Z,64981.19
2023-01-29T00:09:12.068Z,64983.28
2023-01-29T00:14:17.869Z,64990.53
2023-01-29T00:19:22.541Z,65000.72
2023-01-29T00:24:27.005Z,65010.38
2023-01-29T00:29:33.049Z,65008.78
2023-01-29T00:34:37.385Z,65047.66
2023-01-29T00:39:48.169Z,65045.94
2023-01-29T00:45:00.595Z,65026.09
2023-01-29T00:50:07.456Z,65026.81
2023-01-29T00:55:13.327Z,65041.16
2023-01-29T01:00:21.300Z,65041.16
2023-01-29T01:05:26.017Z,65074.00
2023-01-29T01:10:32.463Z,65099.81
2023-01-29T01:15:41.831Z,65073.03
2023-01-29T01:20:46.190Z,65098.13
2023-01-29T01:25:50.666Z,65084.38
2023-01-29T01:30:56.726Z,65078.34
2023-01-29T01:36:03.167Z,65044.44
2023-01-29T01:41:07.813Z,65109.47
2023-01-29T01:46:13.613Z,65152.75
2023-01-29T01:51:17.849Z,65164.97
2023-01-29T01:56:28.049Z,65084.28
2023-01-29T02:01:34.651Z,65056.56
2023-01-29T02:06:59.156Z,65146.88
2023-01-29T02:12:05.304Z,65263.88
2023-01-29T02:17:14.275Z,65137.41
2023-01-29T02:22:54.133Z,65105.97
2023-01-29T02:28:17.333Z,65253.75
2023-01-29T02:33:31.391Z,65203.66
2023-01-29T02:38:44.379Z,65249.19
2023-01-29T02:43:56.658Z,65290.13
2023-01-29T02:49:09.753Z,65138.38
2023-01-29T02:54:21.731Z,65179.84
2023-01-29T02:59:34.367Z,65223.44
2023-01-29T03:04:46.602Z,65193.66
2023-01-29T03:09:55.164Z,65206.63
2023-01-29T03:15:17.010Z,65072.94
2023-01-29T03:20:48.909Z,65140.28
2023-01-29T03:26:17.530Z,65095.44
2023-01-29T03:31:42.144Z,65129.25
2023-01-29T03:36:55.934Z,65273.44
2023-01-29T03:42:06.980Z,65259.19
2023-01-29T03:47:20.788Z,65252.38
2023-01-29T03:52:30.373Z,65156.44
2023-01-29T03:57:40.905Z,65067.72
2023-01-29T04:02:58.634Z,65089.50
2023-01-29T04:08:08.444Z,65085.78
2023-01-29T04:13:15.105Z,64995.50
2023-01-29T04:18:23.014Z,65040.63
2023-01-29T04:23:45.171Z,65013.13
2023-01-29T04:29:00.457Z,65041.28
2023-01-29T04:34:19.261Z,65017.91
2023-01-29T04:39:28.832Z,64987.00
2023-01-29T04:44:39.842Z,64992.53
2023-01-29T04:49:50.222Z,64972.78
2023-01-29T04:55:05.424Z,65051.38
2023-01-29T05:00:16.745Z,64973.22
2023-01-29T05:05:23.453Z,64947.22
2023-01-29T05:10:28.350Z,64952.53
2023-01-29T05:15:39.689Z,64951.34
2023-01-29T05:20:46.437Z,65054.00
2023-01-29T05:25:52.769Z,65133.28
2023-01-29T05:30:58.354Z,65140.63
2023-01-29T05:36:04.147Z,65099.59
2023-01-29T05:41:09.397Z,65086.41
2023-01-29T05:46:13.877Z,65051.91
2023-01-29T05:51:19.685Z,65099.47
2023-01-29T05:56:25.407Z,65125.09
2023-01-29T06:01:29.419Z,65109.81
2023-01-29T06:06:35.137Z,65073.13
2023-01-29T06:11:39.039Z,65052.75
2023-01-29T06:16:43.602Z,65042.22
2023-01-29T06:21:49.283Z,65089.72
2023-01-29T06:26:53.187Z,65093.31
2023-01-29T06:31:57.703Z,65089.38
2023-01-29T06:37:03.857Z,65021.09
2023-01-29T06:42:08.658Z,65081.00
2023-01-29T06:47:13.087Z,65008.25
2023-01-29T06:52:18.793Z,64961.66
2023-01-29T06:57:22.719Z,64984.34
2023-01-29T07:02:27.121Z,65020.56
2023-01-29T07:07:33.153Z,65039.16
2023-01-29T07:12:37.645Z,64961.44
2023-01-29T07:17:42.076Z,64939.25
2023-01-29T07:22:47.828Z,64910.19
2023-01-29T07:27:52.201Z,64964.19
2023-01-29T07:32:56.453Z,65037.03
2023-01-29T07:38:02.195Z,64995.28
2023-01-29T07:43:08.762Z,64962.50
2023-01-29T07:48:14.330Z,64948.69
2023-01-29T07:53:20.135Z,64930.13
2023-01-29T07:58:24.737Z,64895.22
2023-01-29T08:03:29.212Z,64911.13
2023-01-29T08:08:34.998Z,64952.41
2023-01-29T08:13:39.332Z,65032.03
2023-01-29T08:18:47.710Z,65063.47
2023-01-29T08:23:53.452Z,65010.47
2023-01-29T08:28:57.777Z,64910.09
2023-01-29T08:34:02.481Z,64948.81
2023-01-29T08:39:08.487Z,64872.66
2023-01-29T08:44:12.868Z,64897.13
2023-01-29T08:49:17.335Z,64917.72
2023-01-29T08:54:23.621Z,64976.72
2023-01-29T08:59:28.082Z,64959.41
2023-01-29T09:04:32.662Z,64908.59
2023-01-29T09:09:38.628Z,64976.41
2023-01-29T09:14:43.145Z,64967.25
2023-01-29T09:19:47.641Z,64926.63
2023-01-29T09:24:53.588Z,64961.53
2023-01-29T09:29:58.085Z,64980.66
2023-01-29T09:35:02.880Z,64967.50
2023-01-29T09:40:19.130Z,65071.44
2023-01-29T09:45:25.917Z,65103.31
2023-01-29T09:50:33.729Z,65108.75
2023-01-29T09:55:44.688Z,65219.19
2023-01-29T10:00:56.522Z,65113.63
2023-01-29T10:06:22.613Z,65191.97
2023-01-29T10:11:39.459Z,65150.06
2023-01-29T10:16:56.986Z,65062.09
2023-01-29T10:22:22.639Z,65083.13
2023-01-29T10:27:34.667Z,65087.38
2023-01-29T10:32:39.288Z,65098.66
2023-01-29T10:37:45.054Z,65073.03
2023-01-29T10:42:53.994Z,65119.38
2023-01-29T10:48:36.738Z,65025.75
2023-01-29T10:53:50.455Z,65047.22
2023-01-29T10:59:00.852Z,65045.72
2023-01-29T11:04:07.713Z,65118.84
2023-01-29T11:09:21.838Z,65158.56
2023-01-29T11:14:31.430Z,65133.06
2023-01-29T11:19:44.135Z,65143.81
2023-01-29T11:25:08.134Z,65085.78
2023-01-29T11:30:23.470Z,65118.41
2023-01-29T11:35:30.309Z,65064.53
2023-01-29T11:40:38.032Z,65174.41
2023-01-29T11:45:44.007Z,65126.16
2023-01-29T11:50:54.974Z,65084.19
2023-01-29T11:55:59.382Z,65189.41
2023-01-29T12:01:06.493Z,65126.78
2023-01-29T12:06:19.805Z,65133.06
2023-01-29T12:11:30.375Z,65102.25
2023-01-29T12:16:41.905Z,65150.59
2023-01-29T12:21:50.913Z,65102.88
2023-01-29T12:27:00.786Z,65053.38
2023-01-29T12:32:16.035Z,65053.38
2023-01-29T12:37:25.165Z,65082.06
2023-01-29T12:42:30.112Z,65062.63
2023-01-29T12:47:42.311Z,65102.25
2023-01-29T12:52:50.650Z,65084.91
2023-01-29T12:57:58.778Z,65080.88
2023-01-29T13:03:17.347Z,65124.13
2023-01-29T13:08:26.362Z,65049.78
2023-01-29T13:13:34.436Z,65046.91
2023-01-29T13:18:45.492Z,65044.25
2023-01-29T13:23:53.157Z,65007.72
2023-01-29T13:28:59.114Z,65052.00
2023-01-29T13:34:14.696Z,65059.22
2023-01-29T13:39:25.164Z,65041.38
2023-01-29T13:44:33.083Z,65002.94
2023-01-29T13:49:41.457Z,64994.44
2023-01-29T13:54:54.133Z,65007.06
2023-01-29T13:59:59.025Z,64995.72
2023-01-29T14:05:39.416Z,65025.34
2023-01-29T14:10:45.068Z,65051.47
2023-01-29T14:16:29.659Z,65027.25
2023-01-29T14:21:39.141Z,65006.66
2023-01-29T14:26:46.063Z,65003.69
2023-01-29T14:31:53.950Z,64988.09
2023-01-29T14:37:04.020Z,65037.44
2023-01-29T14:42:23.252Z,65041.69
2023-01-29T14:48:10.044Z,65016.31
2023-01-29T14:53:21.485Z,65006.25
2023-01-29T14:58:32.303Z,65001.88
2023-01-29T15:03:44.408Z,65001.97
2023-01-29T15:08:57.105Z,64997.22
2023-01-29T15:14:08.116Z,65028.31
2023-01-29T15:19:19.696Z,65000.16
2023-01-29T15:24:25.447Z,65043.81
2023-01-29T15:29:30.053Z,65081.00
2023-01-29T15:34:35.443Z,65050.72
2023-01-29T15:39:45.554Z,65063.38
2023-01-29T15:44:49.949Z,65030.13
2023-01-29T15:49:54.421Z,65062.09
2023-01-29T15:55:05.795Z,65022.69
2023-01-29T16:00:23.523Z,65065.06
2023-01-29T16:05:33.147Z,65109.38
2023-01-29T16:10:39.048Z,65101.19
2023-01-29T16:15:56.508Z,65096.31
2023-01-29T16:21:05.461Z,65053.38
2023-01-29T16:26:17.196Z,64978.00
2023-01-29T16:31:29.449Z,65023.13
2023-01-29T16:36:35.102Z,65044.25
2023-01-29T16:41:40.836Z,65043.72
2023-01-29T16:46:46.991Z,65097.34
2023-01-29T16:51:51.212Z,65045.50
2023-01-29T16:57:02.128Z,65040.84
2023-01-29T17:02:21.445Z,65091.84
2023-01-29T17:07:26.552Z,65053.38
2023-01-29T17:12:33.764Z,65043.28
2023-01-29T17:17:38.265Z,65031.50
2023-01-29T17:22:42.910Z,65007.94
2023-01-29T17:27:51.872Z,65018.75
2023-01-29T17:32:56.349Z,65070.69
2023-01-29T17:38:00.892Z,65020.34
2023-01-29T17:43:07.640Z,65032.03
2023-01-29T17:48:16.539Z,65052.31
2023-01-29T17:53:21.963Z,65121.78
2023-01-29T17:58:29.056Z,65030.66
2023-01-29T18:03:33.819Z,65027.34
2023-01-29T18:08:41.060Z,65024.81
2023-01-29T18:13:47.372Z,65028.53
2023-01-29T18:18:52.314Z,65043.94
2023-01-29T18:23:56.742Z,64981.38
2023-01-29T18:29:02.557Z,64975.13
2023-01-29T18:34:06.688Z,65010.06
2023-01-29T18:39:11.933Z,65015.16
2023-01-29T18:44:17.964Z,65071.44
2023-01-29T18:49:22.215Z,65005.72
2023-01-29T18:54:27.072Z,65071.34
2023-01-29T18:59:32.784Z,65122.00
2023-01-29T19:04:37.253Z,65052.84
2023-01-29T19:09:42.308Z,65036.50
2023-01-29T19:14:48.187Z,65010.06
2023-01-29T19:19:52.125Z,65033.19
2023-01-29T19:31:08.085Z,64987.88
2023-01-29T19:36:13.736Z,64977.47
2023-01-29T19:41:18.121Z,65020.47
2023-01-29T19:46:24.512Z,64958.47
2023-01-29T19:51:29.329Z,65047.00
2023-01-29T19:56:35.874Z,65046.56
2023-01-29T20:01:42.128Z,65131.69
2023-01-29T20:06:46.663Z,64992.97
2023-01-29T20:11:51.217Z,65063.56
2023-01-29T20:16:57.188Z,65050.72
2023-01-29T20:22:01.722Z,65089.50
2023-01-29T20:27:06.796Z,65043.28
2023-01-29T20:32:14.608Z,65103.31
2023-01-29T20:37:19.489Z,65026.81
2023-01-29T20:42:31.391Z,65136.47
2023-01-29T20:47:37.583Z,65023.00
2023-01-29T20:52:43.015Z,65083.13
2023-01-29T20:58:05.770Z,65104.81
2023-01-29T21:03:12.541Z,65013.03
2023-01-29T21:08:17.343Z,65053.59
2023-01-29T21:13:21.951Z,64994.53
2023-01-29T21:18:28.016Z,65051.38
2023-01-29T21:23:32.558Z,65031.09
2023-01-29T21:28:37.145Z,64974.81
2023-01-29T21:33:43.201Z,64968.84
2023-01-29T21:38:47.662Z,64942.75
2023-01-29T21:43:52.114Z,64971.31
2023-01-29T21:48:57.984Z,64980.66
2023-01-29T21:54:03.575Z,64971.41
2023-01-29T21:59:08.086Z,64959.53
2023-01-29T22:04:15.795Z,65019.72
2023-01-29T22:09:20.176Z,64983.41
2023-01-29T22:14:24.701Z,65059.44
2023-01-29T22:19:30.962Z,65045.09
2023-01-29T22:24:35.587Z,64982.78
2023-01-29T22:29:40.021Z,65033.41
2023-01-29T22:34:45.930Z,65007.84
2023-01-29T22:39:50.700Z,65020.03
2023-01-29T22:44:55.230Z,65037.56
2023-01-29T22:50:01.278Z,65042.22
2023-01-29T22:55:08.667Z,64987.66
2023-01-29T23:00:13.983Z,65098.66
2023-01-29T23:05:19.957Z,65036.38
2023-01-29T23:10:24.509Z,65037.34
2023-01-29T23:15:28.946Z,65108.84
2023-01-29T23:20:34.867Z,65002.63
2023-01-29T23:25:56.585Z,65082.47
2023-01-29T23:31:01.100Z,65065.59
2023-01-29T23:36:08.449Z,65111.81
2023-01-29T23:41:13.160Z,65056.66
2023-01-29T23:46:17.649Z,65015.78
2023-01-29T23:51:23.647Z,65135.72
2023-01-29T23:56:28.191Z,65086.94
